sensor_id;sensor_type;location;lat;lon;timestamp;temperature;humidity
16412;DHT22;8315;52.104;6.304;2022-08-11T00:01:07;21.60;86.10
16412;DHT22;8315;52.104;6.304;2022-08-11T00:03:35;21.50;86.40
16412;DHT22;8315;52.104;6.304;2022-08-11T00:06:02;21.50;86.50
16412;DHT22;8315;52.104;6.304;2022-08-11T00:08:30;21.50;86.70
16412;DHT22;8315;52.104;6.304;2022-08-11T00:10:58;21.50;86.70
16412;DHT22;8315;52.104;6.304;2022-08-11T00:13:30;21.50;87.20
16412;DHT22;8315;52.104;6.304;2022-08-11T00:15:58;21.40;87.30
16412;DHT22;8315;52.104;6.304;2022-08-11T00:18:27;21.30;87.60
16412;DHT22;8315;52.104;6.304;2022-08-11T00:20:56;21.40;87.60
16412;DHT22;8315;52.104;6.304;2022-08-11T00:23:24;21.20;88.00
16412;DHT22;8315;52.104;6.304;2022-08-11T00:25:51;21.30;88.30
16412;DHT22;8315;52.104;6.304;2022-08-11T00:28:25;21.30;88.20
16412;DHT22;8315;52.104;6.304;2022-08-11T00:30:53;21.30;88.20
16412;DHT22;8315;52.104;6.304;2022-08-11T00:33:21;21.30;88.40
16412;DHT22;8315;52.104;6.304;2022-08-11T00:35:50;21.30;88.70
16412;DHT22;8315;52.104;6.304;2022-08-11T00:38:24;21.30;89.00
16412;DHT22;8315;52.104;6.304;2022-08-11T00:40:52;21.30;89.20
16412;DHT22;8315;52.104;6.304;2022-08-11T00:43:23;21.20;89.30
16412;DHT22;8315;52.104;6.304;2022-08-11T00:46:08;21.10;89.30
16412;DHT22;8315;52.104;6.304;2022-08-11T00:48:39;21.00;89.60
16412;DHT22;8315;52.104;6.304;2022-08-11T00:51:14;21.00;89.90
16412;DHT22;8315;52.104;6.304;2022-08-11T00:53:52;21.00;90.00
16412;DHT22;8315;52.104;6.304;2022-08-11T00:56:36;21.00;89.90
16412;DHT22;8315;52.104;6.304;2022-08-11T00:59:45;20.90;90.30
16412;DHT22;8315;52.104;6.304;2022-08-11T01:02:23;20.80;90.40
16412;DHT22;8315;52.104;6.304;2022-08-11T01:04:57;20.80;90.90
16412;DHT22;8315;52.104;6.304;2022-08-11T01:10:45;20.70;91.90
16412;DHT22;8315;52.104;6.304;2022-08-11T01:13:24;20.70;92.00
16412;DHT22;8315;52.104;6.304;2022-08-11T01:16:05;20.60;91.80
16412;DHT22;8315;52.104;6.304;2022-08-11T01:18:44;20.60;92.30
16412;DHT22;8315;52.104;6.304;2022-08-11T01:24:46;20.50;92.50
16412;DHT22;8315;52.104;6.304;2022-08-11T01:27:31;20.50;92.60
16412;DHT22;8315;52.104;6.304;2022-08-11T01:39:18;20.30;93.50
16412;DHT22;8315;52.104;6.304;2022-08-11T01:42:37;20.20;93.90
16412;DHT22;8315;52.104;6.304;2022-08-11T01:45:52;20.00;94.60
16412;DHT22;8315;52.104;6.304;2022-08-11T01:48:27;19.90;95.10
16412;DHT22;8315;52.104;6.304;2022-08-11T01:53:55;19.90;95.30
16412;DHT22;8315;52.104;6.304;2022-08-11T01:56:37;19.80;95.50
16412;DHT22;8315;52.104;6.304;2022-08-11T01:59:15;19.90;95.60
16412;DHT22;8315;52.104;6.304;2022-08-11T02:02:06;19.90;95.60
16412;DHT22;8315;52.104;6.304;2022-08-11T02:04:46;19.90;95.80
16412;DHT22;8315;52.104;6.304;2022-08-11T02:07:20;19.80;96.10
16412;DHT22;8315;52.104;6.304;2022-08-11T02:10:00;19.70;96.30
16412;DHT22;8315;52.104;6.304;2022-08-11T02:12:53;19.60;96.60
16412;DHT22;8315;52.104;6.304;2022-08-11T02:15:24;19.50;96.90
16412;DHT22;8315;52.104;6.304;2022-08-11T02:17:56;19.50;96.90
16412;DHT22;8315;52.104;6.304;2022-08-11T02:20:26;19.50;97.00
16412;DHT22;8315;52.104;6.304;2022-08-11T02:23:22;19.50;97.10
16412;DHT22;8315;52.104;6.304;2022-08-11T02:26:13;19.50;97.10
16412;DHT22;8315;52.104;6.304;2022-08-11T02:28:47;19.50;97.30
16412;DHT22;8315;52.104;6.304;2022-08-11T02:31:23;19.50;97.30
16412;DHT22;8315;52.104;6.304;2022-08-11T02:34:12;19.50;97.00
16412;DHT22;8315;52.104;6.304;2022-08-11T02:36:44;19.40;97.40
16412;DHT22;8315;52.104;6.304;2022-08-11T02:39:17;19.40;97.50
16412;DHT22;8315;52.104;6.304;2022-08-11T02:41:49;19.30;97.70
16412;DHT22;8315;52.104;6.304;2022-08-11T02:44:37;19.30;98.10
16412;DHT22;8315;52.104;6.304;2022-08-11T02:47:10;19.30;98.20
16412;DHT22;8315;52.104;6.304;2022-08-11T02:49:43;19.20;98.30
16412;DHT22;8315;52.104;6.304;2022-08-11T02:52:25;19.20;98.40
16412;DHT22;8315;52.104;6.304;2022-08-11T02:55:02;19.10;98.40
16412;DHT22;8315;52.104;6.304;2022-08-11T02:57:39;19.20;98.40
16412;DHT22;8315;52.104;6.304;2022-08-11T03:00:08;19.10;98.40
16412;DHT22;8315;52.104;6.304;2022-08-11T03:02:41;19.10;98.40
16412;DHT22;8315;52.104;6.304;2022-08-11T03:05:15;19.10;98.40
16412;DHT22;8315;52.104;6.304;2022-08-11T03:07:50;19.10;98.40
16412;DHT22;8315;52.104;6.304;2022-08-11T03:10:31;19.10;98.40
16412;DHT22;8315;52.104;6.304;2022-08-11T03:13:03;19.00;98.40
16412;DHT22;8315;52.104;6.304;2022-08-11T03:15:57;19.00;98.40
16412;DHT22;8315;52.104;6.304;2022-08-11T03:18:53;19.00;98.40
16412;DHT22;8315;52.104;6.304;2022-08-11T03:21:23;18.90;98.40
16412;DHT22;8315;52.104;6.304;2022-08-11T03:23:55;18.80;98.40
16412;DHT22;8315;52.104;6.304;2022-08-11T03:26:27;18.90;98.40
16412;DHT22;8315;52.104;6.304;2022-08-11T03:29:00;18.80;98.40
16412;DHT22;8315;52.104;6.304;2022-08-11T03:31:32;18.80;98.40
16412;DHT22;8315;52.104;6.304;2022-08-11T03:34:02;18.80;98.40
16412;DHT22;8315;52.104;6.304;2022-08-11T03:36:40;18.80;98.40
16412;DHT22;8315;52.104;6.304;2022-08-11T03:39:21;18.70;98.40
16412;DHT22;8315;52.104;6.304;2022-08-11T03:41:56;18.70;98.40
16412;DHT22;8315;52.104;6.304;2022-08-11T03:44:41;18.60;98.40
16412;DHT22;8315;52.104;6.304;2022-08-11T03:47:17;18.50;98.40
16412;DHT22;8315;52.104;6.304;2022-08-11T03:49:56;18.60;98.40
16412;DHT22;8315;52.104;6.304;2022-08-11T03:52:31;18.60;98.40
16412;DHT22;8315;52.104;6.304;2022-08-11T03:55:10;18.60;98.40
16412;DHT22;8315;52.104;6.304;2022-08-11T03:57:47;18.60;98.40
16412;DHT22;8315;52.104;6.304;2022-08-11T04:03:57;18.50;98.40
16412;DHT22;8315;52.104;6.304;2022-08-11T04:09:55;18.50;98.40
16412;DHT22;8315;52.104;6.304;2022-08-11T04:12:35;18.50;98.40
16412;DHT22;8315;52.104;6.304;2022-08-11T04:18:45;18.40;98.40
16412;DHT22;8315;52.104;6.304;2022-08-11T04:21:20;18.30;98.40
16412;DHT22;8315;52.104;6.304;2022-08-11T04:23:58;18.40;98.40
16412;DHT22;8315;52.104;6.304;2022-08-11T04:26:47;18.40;98.40
16412;DHT22;8315;52.104;6.304;2022-08-11T04:29:28;18.40;98.40
16412;DHT22;8315;52.104;6.304;2022-08-11T04:32:06;18.40;98.40
16412;DHT22;8315;52.104;6.304;2022-08-11T04:34:48;18.30;98.40
16412;DHT22;8315;52.104;6.304;2022-08-11T04:40:42;18.20;98.40
16412;DHT22;8315;52.104;6.304;2022-08-11T04:43:30;18.20;98.40
16412;DHT22;8315;52.104;6.304;2022-08-11T04:46:31;18.20;98.40
16412;DHT22;8315;52.104;6.304;2022-08-11T04:55:44;18.30;98.40
16412;DHT22;8315;52.104;6.304;2022-08-11T04:58:48;18.30;98.40
16412;DHT22;8315;52.104;6.304;2022-08-11T05:01:39;18.30;98.40
16412;DHT22;8315;52.104;6.304;2022-08-11T05:04:35;18.30;98.40
16412;DHT22;8315;52.104;6.304;2022-08-11T05:07:49;18.30;98.40
16412;DHT22;8315;52.104;6.304;2022-08-11T05:10:55;18.40;98.40
16412;DHT22;8315;52.104;6.304;2022-08-11T05:13:43;18.50;98.40
16412;DHT22;8315;52.104;6.304;2022-08-11T05:16:29;18.50;98.40
16412;DHT22;8315;52.104;6.304;2022-08-11T05:19:18;18.50;98.40
16412;DHT22;8315;52.104;6.304;2022-08-11T05:22:05;18.60;98.40
16412;DHT22;8315;52.104;6.304;2022-08-11T05:24:58;18.60;98.40
16412;DHT22;8315;52.104;6.304;2022-08-11T05:30:46;18.70;98.40
16412;DHT22;8315;52.104;6.304;2022-08-11T05:33:32;18.80;98.40
16412;DHT22;8315;52.104;6.304;2022-08-11T05:36:23;18.90;98.40
16412;DHT22;8315;52.104;6.304;2022-08-11T05:38:55;19.00;98.40
16412;DHT22;8315;52.104;6.304;2022-08-11T05:41:55;19.10;98.40
16412;DHT22;8315;52.104;6.304;2022-08-11T05:44:43;19.00;98.40
16412;DHT22;8315;52.104;6.304;2022-08-11T05:47:28;19.10;98.40
16412;DHT22;8315;52.104;6.304;2022-08-11T05:50:13;19.20;98.40
16412;DHT22;8315;52.104;6.304;2022-08-11T05:52:59;19.30;98.40
16412;DHT22;8315;52.104;6.304;2022-08-11T05:55:44;19.30;98.40
16412;DHT22;8315;52.104;6.304;2022-08-11T05:58:34;19.40;98.40
16412;DHT22;8315;52.104;6.304;2022-08-11T06:01:02;19.50;97.80
16412;DHT22;8315;52.104;6.304;2022-08-11T06:03:30;19.60;97.20
16412;DHT22;8315;52.104;6.304;2022-08-11T06:06:18;19.70;97.10
16412;DHT22;8315;52.104;6.304;2022-08-11T06:08:45;19.90;96.80
16412;DHT22;8315;52.104;6.304;2022-08-11T06:11:12;20.00;96.30
16412;DHT22;8315;52.104;6.304;2022-08-11T06:13:43;20.00;95.80
16412;DHT22;8315;52.104;6.304;2022-08-11T06:16:10;20.00;95.30
16412;DHT22;8315;52.104;6.304;2022-08-11T06:18:43;20.10;95.40
16412;DHT22;8315;52.104;6.304;2022-08-11T06:21:11;20.20;95.00
16412;DHT22;8315;52.104;6.304;2022-08-11T06:23:38;20.20;94.60
16412;DHT22;8315;52.104;6.304;2022-08-11T06:26:07;20.40;94.90
16412;DHT22;8315;52.104;6.304;2022-08-11T06:28:34;20.40;94.00
16412;DHT22;8315;52.104;6.304;2022-08-11T06:31:10;20.50;93.90
16412;DHT22;8315;52.104;6.304;2022-08-11T06:36:22;20.80;93.20
16412;DHT22;8315;52.104;6.304;2022-08-11T06:38:57;20.90;92.40
16412;DHT22;8315;52.104;6.304;2022-08-11T06:41:29;21.00;91.90
16412;DHT22;8315;52.104;6.304;2022-08-11T06:44:14;21.10;91.70
16412;DHT22;8315;52.104;6.304;2022-08-11T06:46:45;21.10;90.90
16412;DHT22;8315;52.104;6.304;2022-08-11T06:49:15;21.30;91.10
16412;DHT22;8315;52.104;6.304;2022-08-11T06:52:03;21.40;90.40
16412;DHT22;8315;52.104;6.304;2022-08-11T06:54:31;21.50;90.40
16412;DHT22;8315;52.104;6.304;2022-08-11T06:56:59;21.70;90.30
16412;DHT22;8315;52.104;6.304;2022-08-11T06:59:46;21.80;90.00
16412;DHT22;8315;52.104;6.304;2022-08-11T07:02:33;21.90;89.40
16412;DHT22;8315;52.104;6.304;2022-08-11T07:05:04;22.10;90.40
16412;DHT22;8315;52.104;6.304;2022-08-11T07:10:53;22.30;88.90
16412;DHT22;8315;52.104;6.304;2022-08-11T07:13:50;22.40;87.60
16412;DHT22;8315;52.104;6.304;2022-08-11T07:16:50;22.50;87.80
16412;DHT22;8315;52.104;6.304;2022-08-11T07:19:21;22.60;86.00
16412;DHT22;8315;52.104;6.304;2022-08-11T07:22:08;22.70;85.50
16412;DHT22;8315;52.104;6.304;2022-08-11T07:24:54;22.80;85.90
16412;DHT22;8315;52.104;6.304;2022-08-11T07:27:43;22.90;84.80
16412;DHT22;8315;52.104;6.304;2022-08-11T07:30:29;23.10;85.10
16412;DHT22;8315;52.104;6.304;2022-08-11T07:33:00;23.20;84.90
16412;DHT22;8315;52.104;6.304;2022-08-11T07:35:31;23.30;84.90
16412;DHT22;8315;52.104;6.304;2022-08-11T07:38:00;23.50;85.00
16412;DHT22;8315;52.104;6.304;2022-08-11T07:40:29;23.60;84.20
16412;DHT22;8315;52.104;6.304;2022-08-11T07:42:56;23.60;83.00
16412;DHT22;8315;52.104;6.304;2022-08-11T07:45:25;23.70;82.10
16412;DHT22;8315;52.104;6.304;2022-08-11T07:48:10;23.80;82.40
16412;DHT22;8315;52.104;6.304;2022-08-11T07:50:57;23.90;81.80
16412;DHT22;8315;52.104;6.304;2022-08-11T07:53:42;24.00;81.60
16412;DHT22;8315;52.104;6.304;2022-08-11T07:56:09;24.20;83.10
16412;DHT22;8315;52.104;6.304;2022-08-11T07:58:40;24.30;82.40
16412;DHT22;8315;52.104;6.304;2022-08-11T08:01:26;24.40;82.20
16412;DHT22;8315;52.104;6.304;2022-08-11T08:04:11;24.60;81.10
16412;DHT22;8315;52.104;6.304;2022-08-11T08:06:58;24.70;81.70
16412;DHT22;8315;52.104;6.304;2022-08-11T08:09:44;24.90;79.10
16412;DHT22;8315;52.104;6.304;2022-08-11T08:12:29;25.10;79.50
16412;DHT22;8315;52.104;6.304;2022-08-11T08:15:15;25.20;77.80
16412;DHT22;8315;52.104;6.304;2022-08-11T08:18:04;25.30;77.40
16412;DHT22;8315;52.104;6.304;2022-08-11T08:20:34;25.40;77.00
16412;DHT22;8315;52.104;6.304;2022-08-11T08:23:03;25.40;76.00
16412;DHT22;8315;52.104;6.304;2022-08-11T08:25:31;25.50;75.90
16412;DHT22;8315;52.104;6.304;2022-08-11T08:28:00;25.60;75.30
16412;DHT22;8315;52.104;6.304;2022-08-11T08:30:28;25.70;75.40
16412;DHT22;8315;52.104;6.304;2022-08-11T08:33:12;25.80;75.90
16412;DHT22;8315;52.104;6.304;2022-08-11T08:35:41;26.10;76.70
16412;DHT22;8315;52.104;6.304;2022-08-11T08:38:10;26.20;74.30
16412;DHT22;8315;52.104;6.304;2022-08-11T08:40:37;26.20;73.10
16412;DHT22;8315;52.104;6.304;2022-08-11T08:43:06;26.30;73.50
16412;DHT22;8315;52.104;6.304;2022-08-11T08:45:34;26.40;72.90
16412;DHT22;8315;52.104;6.304;2022-08-11T08:48:03;26.50;72.50
16412;DHT22;8315;52.104;6.304;2022-08-11T08:50:32;26.70;73.10
16412;DHT22;8315;52.104;6.304;2022-08-11T08:53:21;26.70;73.00
16412;DHT22;8315;52.104;6.304;2022-08-11T08:55:53;26.80;73.00
16412;DHT22;8315;52.104;6.304;2022-08-11T08:58:21;26.80;73.70
16412;DHT22;8315;52.104;6.304;2022-08-11T09:00:50;26.90;72.40
16412;DHT22;8315;52.104;6.304;2022-08-11T09:03:18;27.10;72.60
16412;DHT22;8315;52.104;6.304;2022-08-11T09:05:45;27.20;71.70
16412;DHT22;8315;52.104;6.304;2022-08-11T09:08:13;27.30;70.90
16412;DHT22;8315;52.104;6.304;2022-08-11T09:10:45;27.40;70.60
16412;DHT22;8315;52.104;6.304;2022-08-11T09:13:33;27.40;70.30
16412;DHT22;8315;52.104;6.304;2022-08-11T09:16:01;27.60;70.90
16412;DHT22;8315;52.104;6.304;2022-08-11T09:18:27;27.70;70.20
16412;DHT22;8315;52.104;6.304;2022-08-11T09:20:55;27.70;69.70
16412;DHT22;8315;52.104;6.304;2022-08-11T09:23:22;27.80;69.90
16412;DHT22;8315;52.104;6.304;2022-08-11T09:26:08;28.00;68.00
16412;DHT22;8315;52.104;6.304;2022-08-11T09:28:53;28.10;66.60
16412;DHT22;8315;52.104;6.304;2022-08-11T09:31:20;28.20;67.10
16412;DHT22;8315;52.104;6.304;2022-08-11T09:33:49;28.20;65.30
16412;DHT22;8315;52.104;6.304;2022-08-11T09:36:18;28.20;64.70
16412;DHT22;8315;52.104;6.304;2022-08-11T09:39:03;28.20;63.80
16412;DHT22;8315;52.104;6.304;2022-08-11T09:41:50;28.30;64.00
16412;DHT22;8315;52.104;6.304;2022-08-11T09:44:17;28.50;64.10
16412;DHT22;8315;52.104;6.304;2022-08-11T09:47:01;28.60;62.30
16412;DHT22;8315;52.104;6.304;2022-08-11T09:49:29;28.50;62.30
16412;DHT22;8315;52.104;6.304;2022-08-11T09:51:57;28.40;61.50
16412;DHT22;8315;52.104;6.304;2022-08-11T09:54:25;28.60;62.50
16412;DHT22;8315;52.104;6.304;2022-08-11T09:56:54;28.70;61.70
16412;DHT22;8315;52.104;6.304;2022-08-11T09:59:38;28.70;61.60
16412;DHT22;8315;52.104;6.304;2022-08-11T10:02:06;28.80;61.70
16412;DHT22;8315;52.104;6.304;2022-08-11T10:04:37;28.90;61.50
16412;DHT22;8315;52.104;6.304;2022-08-11T10:07:06;29.00;60.90
16412;DHT22;8315;52.104;6.304;2022-08-11T10:09:38;29.00;59.50
16412;DHT22;8315;52.104;6.304;2022-08-11T10:12:09;29.00;59.70
16412;DHT22;8315;52.104;6.304;2022-08-11T10:14:41;29.00;60.50
16412;DHT22;8315;52.104;6.304;2022-08-11T10:17:29;29.10;61.10
16412;DHT22;8315;52.104;6.304;2022-08-11T10:19:58;29.20;60.20
16412;DHT22;8315;52.104;6.304;2022-08-11T10:22:27;29.30;60.20
16412;DHT22;8315;52.104;6.304;2022-08-11T10:25:13;29.40;59.90
16412;DHT22;8315;52.104;6.304;2022-08-11T10:27:59;29.40;58.10
16412;DHT22;8315;52.104;6.304;2022-08-11T10:30:29;29.50;57.70
16412;DHT22;8315;52.104;6.304;2022-08-11T10:33:13;29.50;58.30
16412;DHT22;8315;52.104;6.304;2022-08-11T10:35:59;29.40;56.90
16412;DHT22;8315;52.104;6.304;2022-08-11T10:38:27;29.40;58.20
16412;DHT22;8315;52.104;6.304;2022-08-11T10:40:54;29.50;58.60
16412;DHT22;8315;52.104;6.304;2022-08-11T10:43:37;29.60;56.50
16412;DHT22;8315;52.104;6.304;2022-08-11T10:46:06;29.60;56.70
16412;DHT22;8315;52.104;6.304;2022-08-11T10:48:51;29.70;57.30
16412;DHT22;8315;52.104;6.304;2022-08-11T10:51:18;29.70;56.50
16412;DHT22;8315;52.104;6.304;2022-08-11T10:53:45;29.80;56.40
16412;DHT22;8315;52.104;6.304;2022-08-11T10:56:32;29.80;56.30
16412;DHT22;8315;52.104;6.304;2022-08-11T10:59:19;29.90;57.20
16412;DHT22;8315;52.104;6.304;2022-08-11T11:01:47;29.80;57.40
16412;DHT22;8315;52.104;6.304;2022-08-11T11:04:16;29.80;56.60
16412;DHT22;8315;52.104;6.304;2022-08-11T11:06:48;29.80;56.30
16412;DHT22;8315;52.104;6.304;2022-08-11T11:09:18;29.80;57.00
16412;DHT22;8315;52.104;6.304;2022-08-11T11:11:48;29.90;57.70
16412;DHT22;8315;52.104;6.304;2022-08-11T11:14:43;30.00;56.30
16412;DHT22;8315;52.104;6.304;2022-08-11T11:17:29;30.00;55.80
16412;DHT22;8315;52.104;6.304;2022-08-11T11:20:16;30.10;56.10
16412;DHT22;8315;52.104;6.304;2022-08-11T11:22:46;30.20;56.10
16412;DHT22;8315;52.104;6.304;2022-08-11T11:25:19;30.20;56.00
16412;DHT22;8315;52.104;6.304;2022-08-11T11:27:51;30.30;56.40
16412;DHT22;8315;52.104;6.304;2022-08-11T11:30:24;30.20;55.50
16412;DHT22;8315;52.104;6.304;2022-08-11T11:32:57;30.20;54.80
16412;DHT22;8315;52.104;6.304;2022-08-11T11:35:30;30.10;56.10
16412;DHT22;8315;52.104;6.304;2022-08-11T11:38:02;30.20;54.80
16412;DHT22;8315;52.104;6.304;2022-08-11T11:40:33;30.40;54.50
16412;DHT22;8315;52.104;6.304;2022-08-11T11:43:01;30.40;54.90
16412;DHT22;8315;52.104;6.304;2022-08-11T11:45:30;30.40;53.80
16412;DHT22;8315;52.104;6.304;2022-08-11T11:47:58;30.40;53.90
16412;DHT22;8315;52.104;6.304;2022-08-11T11:50:26;30.30;53.40
16412;DHT22;8315;52.104;6.304;2022-08-11T11:52:54;30.40;55.60
16412;DHT22;8315;52.104;6.304;2022-08-11T11:55:22;30.60;55.00
16412;DHT22;8315;52.104;6.304;2022-08-11T11:57:50;30.80;54.50
16412;DHT22;8315;52.104;6.304;2022-08-11T12:00:36;30.90;53.90
16412;DHT22;8315;52.104;6.304;2022-08-11T12:03:21;30.90;53.60
16412;DHT22;8315;52.104;6.304;2022-08-11T12:05:49;30.80;53.20
16412;DHT22;8315;52.104;6.304;2022-08-11T12:08:17;30.80;53.50
16412;DHT22;8315;52.104;6.304;2022-08-11T12:10:46;30.70;52.90
16412;DHT22;8315;52.104;6.304;2022-08-11T12:13:14;30.70;53.50
16412;DHT22;8315;52.104;6.304;2022-08-11T12:16:00;30.90;52.80
16412;DHT22;8315;52.104;6.304;2022-08-11T12:18:30;30.90;53.70
16412;DHT22;8315;52.104;6.304;2022-08-11T12:20:58;30.90;53.20
16412;DHT22;8315;52.104;6.304;2022-08-11T12:23:26;30.80;53.40
16412;DHT22;8315;52.104;6.304;2022-08-11T12:26:07;30.70;52.60
16412;DHT22;8315;52.104;6.304;2022-08-11T12:28:52;30.70;52.90
16412;DHT22;8315;52.104;6.304;2022-08-11T12:31:24;30.80;52.60
16412;DHT22;8315;52.104;6.304;2022-08-11T12:33:51;30.90;52.20
16412;DHT22;8315;52.104;6.304;2022-08-11T12:36:18;31.00;52.00
16412;DHT22;8315;52.104;6.304;2022-08-11T12:38:46;31.10;50.70
16412;DHT22;8315;52.104;6.304;2022-08-11T12:41:13;31.10;50.40
16412;DHT22;8315;52.104;6.304;2022-08-11T12:43:58;31.10;50.20
16412;DHT22;8315;52.104;6.304;2022-08-11T12:46:45;31.10;51.40
16412;DHT22;8315;52.104;6.304;2022-08-11T12:49:14;31.10;52.00
16412;DHT22;8315;52.104;6.304;2022-08-11T12:52:03;31.20;52.10
16412;DHT22;8315;52.104;6.304;2022-08-11T12:54:34;31.30;52.50
16412;DHT22;8315;52.104;6.304;2022-08-11T12:57:07;31.20;51.90
16412;DHT22;8315;52.104;6.304;2022-08-11T12:59:54;31.30;51.10
16412;DHT22;8315;52.104;6.304;2022-08-11T13:02:40;31.30;52.20
16412;DHT22;8315;52.104;6.304;2022-08-11T13:05:25;31.40;50.90
16412;DHT22;8315;52.104;6.304;2022-08-11T13:07:52;31.30;50.50
16412;DHT22;8315;52.104;6.304;2022-08-11T13:10:19;31.10;50.00
16412;DHT22;8315;52.104;6.304;2022-08-11T13:13:07;31.30;50.70
16412;DHT22;8315;52.104;6.304;2022-08-11T13:15:33;31.30;50.80
16412;DHT22;8315;52.104;6.304;2022-08-11T13:18:03;31.20;50.80
16412;DHT22;8315;52.104;6.304;2022-08-11T13:20:32;31.30;51.90
16412;DHT22;8315;52.104;6.304;2022-08-11T13:22:59;31.40;51.10
16412;DHT22;8315;52.104;6.304;2022-08-11T13:25:29;31.50;51.80
16412;DHT22;8315;52.104;6.304;2022-08-11T13:27:57;31.40;51.40
16412;DHT22;8315;52.104;6.304;2022-08-11T13:30:26;31.40;53.00
16412;DHT22;8315;52.104;6.304;2022-08-11T13:33:13;31.50;53.10
16412;DHT22;8315;52.104;6.304;2022-08-11T13:35:42;31.60;50.50
16412;DHT22;8315;52.104;6.304;2022-08-11T13:38:11;31.50;50.10
16412;DHT22;8315;52.104;6.304;2022-08-11T13:40:38;31.30;50.00
16412;DHT22;8315;52.104;6.304;2022-08-11T13:43:06;31.40;49.40
16412;DHT22;8315;52.104;6.304;2022-08-11T13:45:33;31.50;50.60
16412;DHT22;8315;52.104;6.304;2022-08-11T13:48:01;31.50;49.60
16412;DHT22;8315;52.104;6.304;2022-08-11T13:50:30;31.50;50.60
16412;DHT22;8315;52.104;6.304;2022-08-11T13:53:14;31.40;50.70
16412;DHT22;8315;52.104;6.304;2022-08-11T13:55:42;31.50;50.20
16412;DHT22;8315;52.104;6.304;2022-08-11T13:58:09;31.60;50.30
16412;DHT22;8315;52.104;6.304;2022-08-11T14:00:36;31.60;50.10
16412;DHT22;8315;52.104;6.304;2022-08-11T14:03:05;31.60;48.90
16412;DHT22;8315;52.104;6.304;2022-08-11T14:05:38;31.70;49.90
16412;DHT22;8315;52.104;6.304;2022-08-11T14:08:07;31.90;49.50
16412;DHT22;8315;52.104;6.304;2022-08-11T14:10:36;31.90;49.30
16412;DHT22;8315;52.104;6.304;2022-08-11T14:13:06;32.10;50.10
16412;DHT22;8315;52.104;6.304;2022-08-11T14:15:51;32.20;51.70
16412;DHT22;8315;52.104;6.304;2022-08-11T14:18:19;32.20;49.10
16412;DHT22;8315;52.104;6.304;2022-08-11T14:20:49;32.20;48.20
16412;DHT22;8315;52.104;6.304;2022-08-11T14:23:36;32.40;48.20
16412;DHT22;8315;52.104;6.304;2022-08-11T14:26:05;32.40;47.70
16412;DHT22;8315;52.104;6.304;2022-08-11T14:28:53;32.20;47.90
16412;DHT22;8315;52.104;6.304;2022-08-11T14:31:21;32.00;48.30
16412;DHT22;8315;52.104;6.304;2022-08-11T14:33:50;32.40;47.90
16412;DHT22;8315;52.104;6.304;2022-08-11T14:36:20;32.40;49.00
16412;DHT22;8315;52.104;6.304;2022-08-11T14:38:48;32.60;48.10
16412;DHT22;8315;52.104;6.304;2022-08-11T14:41:15;32.50;47.50
16412;DHT22;8315;52.104;6.304;2022-08-11T14:44:01;32.50;48.30
16412;DHT22;8315;52.104;6.304;2022-08-11T14:46:46;32.80;48.00
16412;DHT22;8315;52.104;6.304;2022-08-11T14:49:33;32.60;47.80
16412;DHT22;8315;52.104;6.304;2022-08-11T14:52:02;32.50;48.60
16412;DHT22;8315;52.104;6.304;2022-08-11T14:54:32;32.60;50.20
16412;DHT22;8315;52.104;6.304;2022-08-11T14:57:17;32.80;48.00
16412;DHT22;8315;52.104;6.304;2022-08-11T14:59:45;33.00;48.50
16412;DHT22;8315;52.104;6.304;2022-08-11T15:02:13;32.80;48.00
16412;DHT22;8315;52.104;6.304;2022-08-11T15:04:59;32.80;48.50
16412;DHT22;8315;52.104;6.304;2022-08-11T15:07:28;33.20;48.50
16412;DHT22;8315;52.104;6.304;2022-08-11T15:09:55;33.30;47.40
16412;DHT22;8315;52.104;6.304;2022-08-11T15:12:23;32.80;47.70
16412;DHT22;8315;52.104;6.304;2022-08-11T15:14:50;32.80;48.20
16412;DHT22;8315;52.104;6.304;2022-08-11T15:17:34;32.90;49.00
16412;DHT22;8315;52.104;6.304;2022-08-11T15:20:03;33.40;48.70
16412;DHT22;8315;52.104;6.304;2022-08-11T15:22:51;33.60;47.80
16412;DHT22;8315;52.104;6.304;2022-08-11T15:25:36;33.30;48.10
16412;DHT22;8315;52.104;6.304;2022-08-11T15:28:04;33.50;49.40
16412;DHT22;8315;52.104;6.304;2022-08-11T15:30:50;33.60;47.90
16412;DHT22;8315;52.104;6.304;2022-08-11T15:33:36;33.50;48.10
16412;DHT22;8315;52.104;6.304;2022-08-11T15:36:22;33.60;47.80
16412;DHT22;8315;52.104;6.304;2022-08-11T15:39:12;33.50;47.00
16412;DHT22;8315;52.104;6.304;2022-08-11T15:41:46;33.40;47.50
16412;DHT22;8315;52.104;6.304;2022-08-11T15:44:33;33.50;48.20
16412;DHT22;8315;52.104;6.304;2022-08-11T15:47:21;33.90;47.40
16412;DHT22;8315;52.104;6.304;2022-08-11T15:49:52;34.10;48.10
16412;DHT22;8315;52.104;6.304;2022-08-11T15:52:20;34.40;47.70
16412;DHT22;8315;52.104;6.304;2022-08-11T15:54:49;34.20;46.50
16412;DHT22;8315;52.104;6.304;2022-08-11T15:57:17;33.70;46.30
16412;DHT22;8315;52.104;6.304;2022-08-11T15:59:59;33.60;46.60
16412;DHT22;8315;52.104;6.304;2022-08-11T16:02:48;33.40;46.60
16412;DHT22;8315;52.104;6.304;2022-08-11T16:05:34;33.50;47.10
16412;DHT22;8315;52.104;6.304;2022-08-11T16:08:01;33.80;46.50
16412;DHT22;8315;52.104;6.304;2022-08-11T16:10:31;33.50;46.50
16412;DHT22;8315;52.104;6.304;2022-08-11T16:12:59;33.90;46.60
16412;DHT22;8315;52.104;6.304;2022-08-11T16:15:44;33.60;46.40
16412;DHT22;8315;52.104;6.304;2022-08-11T16:18:32;33.60;46.20
16412;DHT22;8315;52.104;6.304;2022-08-11T16:21:06;33.50;46.20
16412;DHT22;8315;52.104;6.304;2022-08-11T16:23:34;34.10;45.90
16412;DHT22;8315;52.104;6.304;2022-08-11T16:26:04;34.00;45.90
16412;DHT22;8315;52.104;6.304;2022-08-11T16:28:32;33.70;45.60
16412;DHT22;8315;52.104;6.304;2022-08-11T16:30:59;33.50;45.60
16412;DHT22;8315;52.104;6.304;2022-08-11T16:33:27;33.70;45.50
16412;DHT22;8315;52.104;6.304;2022-08-11T16:35:54;33.60;45.60
16412;DHT22;8315;52.104;6.304;2022-08-11T16:38:39;33.60;45.70
16412;DHT22;8315;52.104;6.304;2022-08-11T16:41:09;33.50;46.20
16412;DHT22;8315;52.104;6.304;2022-08-11T16:43:38;33.60;46.00
16412;DHT22;8315;52.104;6.304;2022-08-11T16:46:24;33.50;45.90
16412;DHT22;8315;52.104;6.304;2022-08-11T16:49:11;33.60;45.30
16412;DHT22;8315;52.104;6.304;2022-08-11T16:51:39;33.80;46.10
16412;DHT22;8315;52.104;6.304;2022-08-11T16:54:06;33.70;46.00
16412;DHT22;8315;52.104;6.304;2022-08-11T16:56:35;33.40;46.40
16412;DHT22;8315;52.104;6.304;2022-08-11T16:59:05;33.40;46.30
16412;DHT22;8315;52.104;6.304;2022-08-11T17:01:42;33.60;46.80
16412;DHT22;8315;52.104;6.304;2022-08-11T17:04:15;33.80;46.40
16412;DHT22;8315;52.104;6.304;2022-08-11T17:07:02;34.00;46.00
16412;DHT22;8315;52.104;6.304;2022-08-11T17:09:48;33.30;46.60
16412;DHT22;8315;52.104;6.304;2022-08-11T17:12:34;33.60;46.50
16412;DHT22;8315;52.104;6.304;2022-08-11T17:15:21;33.40;46.50
16412;DHT22;8315;52.104;6.304;2022-08-11T17:18:06;33.20;46.60
16412;DHT22;8315;52.104;6.304;2022-08-11T17:20:35;33.20;47.30
16412;DHT22;8315;52.104;6.304;2022-08-11T17:23:03;33.40;46.70
16412;DHT22;8315;52.104;6.304;2022-08-11T17:25:49;33.40;47.00
16412;DHT22;8315;52.104;6.304;2022-08-11T17:28:18;33.50;46.60
16412;DHT22;8315;52.104;6.304;2022-08-11T17:30:45;33.40;46.80